Charyn Airfield

Jump to: basic info | weather | comments

Related pages: nearby airports | nearby navaids

Basic information (top)

Location: lon 43.720001, lat 79.474998
Status: small_airport

Weather (top)

Current conditions for Yining Airport 82nm (151km) E (rec'd 2013/12/04 06:00Z):

ZWYN 040600Z 12003MPS CAVOK 05/M06 Q1018 NOSIG

Airport forecast for Almaty Airport 108nm (200km) W (rec'd 2014/04/23 06:18Z):

TAF TAF UAAA 230500Z 2306/2406 04006MPS 9999 BKN020 BKN100 TX09/2309Z TNM02/2401Z 
      BECMG 2312/2313 16005MPS 3000 BR FU SCT010 SCT100 
      TEMPO 2313/2318 0600 
      TEMPO 2318/2403 0600 FZFG

Latest comments (top)

Name of the airfield: Name is unspecified. [read]

More... (top)

See also NOTAMs and nearby airports and navaids, or visit the Charyn Airfield page at the main OurAirports website..